Archival Weather

Los Angeles Intl

Los Angeles, California (KLAX)

Report from: Thursday, September 21, 2023 6:53 AM PDT
Current time: Saturday, March 2, 2024 1:33 AM PST

Current weather – Weather history – Daily summaries
Weather forecast

Temperature17.8°C (64.0°F)
Dew point16.1°C (61.0°F)
Winds 4 kts (2.1 m/s, 4.6 mph) Southwest (230°)
Visibility9 mi. (14.5 km)
Clouds Scattered clouds 1,000 ft. (305 m)
Ceiling: Broken clouds 2,400 ft. (732 m)
Overcast 4,400 ft. (1,341 m)
Altimeter29.91 in.Hg (1013 mB)
Relative humidity90 %
Density altitude599 ft. (183 m)
Sea-level pressure101.3 kPa (1013 mB, 29.91 in.Hg)
Remarks Automated weather observing station with precipitation discriminator
Flight conditions Marginal Visual Meteorological Conditions
Raw dataKLAX 211353Z 23004KT 9SM SCT010 BKN024 OVC044 18/16 A2991 RMK AO2 SLP127 T01780161
An error has occurred. This application may no longer respond until reloaded. Reload 🗙